sensor_id;sensor_type;location;lat;lon;timestamp;P1;P2;P0
77538;PMS7003;67783;51.656;16.106;2023-06-10T00:02:27;5;4;4
77538;PMS7003;67783;51.656;16.106;2023-06-10T00:05:29;4;4;3
77538;PMS7003;67783;51.656;16.106;2023-06-10T00:08:41;5;5;4
77538;PMS7003;67783;51.656;16.106;2023-06-10T00:11:43;5;5;4
77538;PMS7003;67783;51.656;16.106;2023-06-10T00:14:45;3;3;3
77538;PMS7003;67783;51.656;16.106;2023-06-10T00:17:46;6;5;3
77538;PMS7003;67783;51.656;16.106;2023-06-10T00:20:49;5;5;4
77538;PMS7003;67783;51.656;16.106;2023-06-10T00:24:02;5;5;4
77538;PMS7003;67783;51.656;16.106;2023-06-10T00:27:06;4;4;3
77538;PMS7003;67783;51.656;16.106;2023-06-10T00:30:08;4;4;3
77538;PMS7003;67783;51.656;16.106;2023-06-10T00:33:10;5;5;4
77538;PMS7003;67783;51.656;16.106;2023-06-10T00:36:11;7;5;4
77538;PMS7003;67783;51.656;16.106;2023-06-10T00:39:22;4;4;3
77538;PMS7003;67783;51.656;16.106;2023-06-10T00:42:24;8;6;5
77538;PMS7003;67783;51.656;16.106;2023-06-10T00:45:26;4;4;3
77538;PMS7003;67783;51.656;16.106;2023-06-10T00:48:27;6;6;4
77538;PMS7003;67783;51.656;16.106;2023-06-10T00:51:30;5;5;4
77538;PMS7003;67783;51.656;16.106;2023-06-10T00:54:32;5;4;3
77538;PMS7003;67783;51.656;16.106;2023-06-10T00:57:34;6;5;4
77538;PMS7003;67783;51.656;16.106;2023-06-10T01:00:39;4;4;3
77538;PMS7003;67783;51.656;16.106;2023-06-10T01:03:41;5;5;4
77538;PMS7003;67783;51.656;16.106;2023-06-10T01:10:11;6;6;4
77538;PMS7003;67783;51.656;16.106;2023-06-10T01:13:18;5;5;4
77538;PMS7003;67783;51.656;16.106;2023-06-10T01:16:24;4;4;3
77538;PMS7003;67783;51.656;16.106;2023-06-10T01:19:32;6;6;4
77538;PMS7003;67783;51.656;16.106;2023-06-10T01:22:37;9;7;5
77538;PMS7003;67783;51.656;16.106;2023-06-10T01:25:39;4;3;2
77538;PMS7003;67783;51.656;16.106;2023-06-10T01:35:12;5;5;4
77538;PMS7003;67783;51.656;16.106;2023-06-10T01:38:14;5;4;4
77538;PMS7003;67783;51.656;16.106;2023-06-10T01:41:20;5;5;3
77538;PMS7003;67783;51.656;16.106;2023-06-10T01:44:31;5;5;4
77538;PMS7003;67783;51.656;16.106;2023-06-10T01:47:33;6;6;3
77538;PMS7003;67783;51.656;16.106;2023-06-10T01:50:35;6;6;5
77538;PMS7003;67783;51.656;16.106;2023-06-10T01:53:36;5;4;3
77538;PMS7003;67783;51.656;16.106;2023-06-10T01:56:38;6;6;5
77538;PMS7003;67783;51.656;16.106;2023-06-10T01:59:40;5;5;5
77538;PMS7003;67783;51.656;16.106;2023-06-10T02:02:44;10;8;4
77538;PMS7003;67783;51.656;16.106;2023-06-10T02:05:49;6;6;5
77538;PMS7003;67783;51.656;16.106;2023-06-10T02:08:51;6;6;4
77538;PMS7003;67783;51.656;16.106;2023-06-10T02:11:54;7;6;4
77538;PMS7003;67783;51.656;16.106;2023-06-10T02:14:56;7;5;4
77538;PMS7003;67783;51.656;16.106;2023-06-10T02:17:58;9;8;5
77538;PMS7003;67783;51.656;16.106;2023-06-10T02:21:10;6;5;4
77538;PMS7003;67783;51.656;16.106;2023-06-10T02:24:11;4;4;3
77538;PMS7003;67783;51.656;16.106;2023-06-10T02:27:13;5;5;3
77538;PMS7003;67783;51.656;16.106;2023-06-10T02:30:15;9;4;3
77538;PMS7003;67783;51.656;16.106;2023-06-10T02:33:17;6;6;5
77538;PMS7003;67783;51.656;16.106;2023-06-10T02:36:30;8;7;5
77538;PMS7003;67783;51.656;16.106;2023-06-10T02:39:32;4;4;4
77538;PMS7003;67783;51.656;16.106;2023-06-10T02:42:34;5;5;4
77538;PMS7003;67783;51.656;16.106;2023-06-10T02:45:36;6;6;4
77538;PMS7003;67783;51.656;16.106;2023-06-10T02:48:41;5;5;3
77538;PMS7003;67783;51.656;16.106;2023-06-10T02:51:51;9;7;6
77538;PMS7003;67783;51.656;16.106;2023-06-10T02:54:57;7;7;6
77538;PMS7003;67783;51.656;16.106;2023-06-10T02:57:59;7;7;6
77538;PMS7003;67783;51.656;16.106;2023-06-10T03:01:01;10;10;7
77538;PMS7003;67783;51.656;16.106;2023-06-10T03:04:05;9;8;6
77538;PMS7003;67783;51.656;16.106;2023-06-10T03:07:12;9;9;6
77538;PMS7003;67783;51.656;16.106;2023-06-10T03:10:14;8;7;6
77538;PMS7003;67783;51.656;16.106;2023-06-10T03:13:16;7;7;6
77538;PMS7003;67783;51.656;16.106;2023-06-10T03:16:18;7;7;5
77538;PMS7003;67783;51.656;16.106;2023-06-10T03:19:19;9;9;5
77538;PMS7003;67783;51.656;16.106;2023-06-10T03:22:32;7;7;5
77538;PMS7003;67783;51.656;16.106;2023-06-10T03:25:34;7;6;5
77538;PMS7003;67783;51.656;16.106;2023-06-10T03:28:36;6;6;5
77538;PMS7003;67783;51.656;16.106;2023-06-10T03:31:37;8;7;5
77538;PMS7003;67783;51.656;16.106;2023-06-10T03:34:40;9;7;5
77538;PMS7003;67783;51.656;16.106;2023-06-10T03:37:41;6;6;5
77538;PMS7003;67783;51.656;16.106;2023-06-10T03:40:43;7;7;5
77538;PMS7003;67783;51.656;16.106;2023-06-10T03:43:48;6;6;5
77538;PMS7003;67783;51.656;16.106;2023-06-10T03:46:50;8;7;6
77538;PMS7003;67783;51.656;16.106;2023-06-10T03:49:52;8;8;6
77538;PMS7003;67783;51.656;16.106;2023-06-10T03:52:54;7;7;5
77538;PMS7003;67783;51.656;16.106;2023-06-10T03:55:55;8;8;6
77538;PMS7003;67783;51.656;16.106;2023-06-10T03:59:08;9;9;6
77538;PMS7003;67783;51.656;16.106;2023-06-10T04:02:10;12;9;6
77538;PMS7003;67783;51.656;16.106;2023-06-10T04:05:12;12;11;6
77538;PMS7003;67783;51.656;16.106;2023-06-10T04:08:14;15;11;9
77538;PMS7003;67783;51.656;16.106;2023-06-10T04:11:16;10;10;8
77538;PMS7003;67783;51.656;16.106;2023-06-10T04:14:18;11;11;9
77538;PMS7003;67783;51.656;16.106;2023-06-10T04:17:19;13;13;9
77538;PMS7003;67783;51.656;16.106;2023-06-10T04:20:24;14;12;9
77538;PMS7003;67783;51.656;16.106;2023-06-10T04:23:26;12;12;9
77538;PMS7003;67783;51.656;16.106;2023-06-10T04:26:28;15;13;8
77538;PMS7003;67783;51.656;16.106;2023-06-10T04:29:30;16;13;9
77538;PMS7003;67783;51.656;16.106;2023-06-10T04:32:31;14;14;10
77538;PMS7003;67783;51.656;16.106;2023-06-10T04:35:33;14;14;9
77538;PMS7003;67783;51.656;16.106;2023-06-10T04:38:34;12;10;8
77538;PMS7003;67783;51.656;16.106;2023-06-10T04:41:39;14;14;10
77538;PMS7003;67783;51.656;16.106;2023-06-10T04:44:41;14;13;7
77538;PMS7003;67783;51.656;16.106;2023-06-10T04:47:43;20;15;11
77538;PMS7003;67783;51.656;16.106;2023-06-10T04:50:45;13;12;10
77538;PMS7003;67783;51.656;16.106;2023-06-10T04:53:47;16;16;10
77538;PMS7003;67783;51.656;16.106;2023-06-10T04:56:48;15;13;10
77538;PMS7003;67783;51.656;16.106;2023-06-10T04:59:50;18;15;11
77538;PMS7003;67783;51.656;16.106;2023-06-10T05:02:55;13;13;11
77538;PMS7003;67783;51.656;16.106;2023-06-10T05:05:57;16;15;12
77538;PMS7003;67783;51.656;16.106;2023-06-10T05:08:58;17;12;10
77538;PMS7003;67783;51.656;16.106;2023-06-10T05:12:00;13;13;9
77538;PMS7003;67783;51.656;16.106;2023-06-10T05:15:03;20;18;12
77538;PMS7003;67783;51.656;16.106;2023-06-10T05:18:05;16;15;12
77538;PMS7003;67783;51.656;16.106;2023-06-10T05:21:06;15;14;9
77538;PMS7003;67783;51.656;16.106;2023-06-10T05:24:11;21;14;10
77538;PMS7003;67783;51.656;16.106;2023-06-10T05:27:13;11;11;9
77538;PMS7003;67783;51.656;16.106;2023-06-10T05:30:14;15;14;11
77538;PMS7003;67783;51.656;16.106;2023-06-10T05:33:20;17;14;10
77538;PMS7003;67783;51.656;16.106;2023-06-10T05:36:21;15;14;10
77538;PMS7003;67783;51.656;16.106;2023-06-10T05:39:32;12;11;8
77538;PMS7003;67783;51.656;16.106;2023-06-10T05:42:33;14;13;9
77538;PMS7003;67783;51.656;16.106;2023-06-10T05:45:35;17;17;11
77538;PMS7003;67783;51.656;16.106;2023-06-10T05:48:36;13;13;10
77538;PMS7003;67783;51.656;16.106;2023-06-10T05:51:38;14;13;9
77538;PMS7003;67783;51.656;16.106;2023-06-10T05:54:39;11;11;8
77538;PMS7003;67783;51.656;16.106;2023-06-10T05:57:41;15;14;10
77538;PMS7003;67783;51.656;16.106;2023-06-10T06:00:46;14;13;9
77538;PMS7003;67783;51.656;16.106;2023-06-10T06:03:48;15;14;10
77538;PMS7003;67783;51.656;16.106;2023-06-10T06:06:50;16;16;10
77538;PMS7003;67783;51.656;16.106;2023-06-10T06:09:51;14;14;11
77538;PMS7003;67783;51.656;16.106;2023-06-10T06:12:53;17;14;9
77538;PMS7003;67783;51.656;16.106;2023-06-10T06:15:54;15;14;11
77538;PMS7003;67783;51.656;16.106;2023-06-10T06:18:56;18;16;12
77538;PMS7003;67783;51.656;16.106;2023-06-10T06:22:01;23;20;14
77538;PMS7003;67783;51.656;16.106;2023-06-10T06:25:03;25;21;14
77538;PMS7003;67783;51.656;16.106;2023-06-10T06:28:06;12;12;9
77538;PMS7003;67783;51.656;16.106;2023-06-10T06:31:10;19;16;11
77538;PMS7003;67783;51.656;16.106;2023-06-10T06:34:11;14;14;10
77538;PMS7003;67783;51.656;16.106;2023-06-10T06:37:22;15;15;12
77538;PMS7003;67783;51.656;16.106;2023-06-10T06:40:27;18;13;9
77538;PMS7003;67783;51.656;16.106;2023-06-10T06:43:29;18;17;10
77538;PMS7003;67783;51.656;16.106;2023-06-10T06:46:34;13;13;11
77538;PMS7003;67783;51.656;16.106;2023-06-10T06:49:35;14;14;8
77538;PMS7003;67783;51.656;16.106;2023-06-10T06:52:42;18;14;10
77538;PMS7003;67783;51.656;16.106;2023-06-10T06:55:44;15;14;12
77538;PMS7003;67783;51.656;16.106;2023-06-10T06:58:45;19;15;11
77538;PMS7003;67783;51.656;16.106;2023-06-10T07:01:47;15;14;8
77538;PMS7003;67783;51.656;16.106;2023-06-10T07:04:49;14;12;9
77538;PMS7003;67783;51.656;16.106;2023-06-10T07:07:51;14;12;10
77538;PMS7003;67783;51.656;16.106;2023-06-10T07:10:56;13;12;11
77538;PMS7003;67783;51.656;16.106;2023-06-10T07:14:01;14;13;10
77538;PMS7003;67783;51.656;16.106;2023-06-10T07:17:03;10;10;8
77538;PMS7003;67783;51.656;16.106;2023-06-10T07:20:05;15;12;8
77538;PMS7003;67783;51.656;16.106;2023-06-10T07:23:07;14;13;8
77538;PMS7003;67783;51.656;16.106;2023-06-10T07:26:08;12;11;9
77538;PMS7003;67783;51.656;16.106;2023-06-10T07:29:22;10;10;8
77538;PMS7003;67783;51.656;16.106;2023-06-10T07:32:23;13;12;8
77538;PMS7003;67783;51.656;16.106;2023-06-10T07:35:25;16;12;9
77538;PMS7003;67783;51.656;16.106;2023-06-10T07:38:27;12;11;9
77538;PMS7003;67783;51.656;16.106;2023-06-10T07:41:28;12;12;9
77538;PMS7003;67783;51.656;16.106;2023-06-10T07:44:30;16;14;10
77538;PMS7003;67783;51.656;16.106;2023-06-10T07:47:32;11;11;9
77538;PMS7003;67783;51.656;16.106;2023-06-10T07:50:36;17;17;10
77538;PMS7003;67783;51.656;16.106;2023-06-10T07:53:38;19;12;10
77538;PMS7003;67783;51.656;16.106;2023-06-10T07:56:39;10;10;8
77538;PMS7003;67783;51.656;16.106;2023-06-10T07:59:41;11;11;8
77538;PMS7003;67783;51.656;16.106;2023-06-10T08:02:45;10;10;8
77538;PMS7003;67783;51.656;16.106;2023-06-10T08:05:57;12;12;9
77538;PMS7003;67783;51.656;16.106;2023-06-10T08:08:58;13;12;8
77538;PMS7003;67783;51.656;16.106;2023-06-10T08:12:01;12;11;8
77538;PMS7003;67783;51.656;16.106;2023-06-10T08:15:03;15;13;10
77538;PMS7003;67783;51.656;16.106;2023-06-10T08:18:06;9;9;5
77538;PMS7003;67783;51.656;16.106;2023-06-10T08:21:17;14;14;11
77538;PMS7003;67783;51.656;16.106;2023-06-10T08:24:20;11;9;7
77538;PMS7003;67783;51.656;16.106;2023-06-10T08:27:22;8;8;7
77538;PMS7003;67783;51.656;16.106;2023-06-10T08:30:23;12;11;8
77538;PMS7003;67783;51.656;16.106;2023-06-10T08:33:25;14;14;8
77538;PMS7003;67783;51.656;16.106;2023-06-10T08:36:26;21;16;12
77538;PMS7003;67783;51.656;16.106;2023-06-10T08:39:28;11;11;7
77538;PMS7003;67783;51.656;16.106;2023-06-10T08:42:33;10;9;7
77538;PMS7003;67783;51.656;16.106;2023-06-10T08:45:45;11;10;8
77538;PMS7003;67783;51.656;16.106;2023-06-10T08:48:51;10;10;8
77538;PMS7003;67783;51.656;16.106;2023-06-10T08:51:59;9;9;8
77538;PMS7003;67783;51.656;16.106;2023-06-10T08:55:08;14;13;10
77538;PMS7003;67783;51.656;16.106;2023-06-10T08:58:16;13;13;9
77538;PMS7003;67783;51.656;16.106;2023-06-10T09:01:26;13;12;9
77538;PMS7003;67783;51.656;16.106;2023-06-10T09:04:28;13;11;9
77538;PMS7003;67783;51.656;16.106;2023-06-10T09:07:30;13;12;10
77538;PMS7003;67783;51.656;16.106;2023-06-10T09:10:32;11;11;8
77538;PMS7003;67783;51.656;16.106;2023-06-10T09:13:34;15;15;9
77538;PMS7003;67783;51.656;16.106;2023-06-10T09:16:46;9;7;4
77538;PMS7003;67783;51.656;16.106;2023-06-10T09:19:50;11;11;8
77538;PMS7003;67783;51.656;16.106;2023-06-10T09:22:57;11;11;8
77538;PMS7003;67783;51.656;16.106;2023-06-10T09:26:00;11;11;8
77538;PMS7003;67783;51.656;16.106;2023-06-10T09:29:06;10;9;7
77538;PMS7003;67783;51.656;16.106;2023-06-10T09:32:12;13;10;7
77538;PMS7003;67783;51.656;16.106;2023-06-10T09:35:14;10;9;8
77538;PMS7003;67783;51.656;16.106;2023-06-10T09:38:20;13;11;9
77538;PMS7003;67783;51.656;16.106;2023-06-10T09:41:30;10;10;7
77538;PMS7003;67783;51.656;16.106;2023-06-10T09:44:35;14;11;9
77538;PMS7003;67783;51.656;16.106;2023-06-10T09:47:40;8;8;6
77538;PMS7003;67783;51.656;16.106;2023-06-10T09:50:42;9;9;7
77538;PMS7003;67783;51.656;16.106;2023-06-10T09:56:53;13;10;8
77538;PMS7003;67783;51.656;16.106;2023-06-10T09:59:54;8;8;7
77538;PMS7003;67783;51.656;16.106;2023-06-10T10:03:01;8;6;5
77538;PMS7003;67783;51.656;16.106;2023-06-10T10:06:04;8;8;7
77538;PMS7003;67783;51.656;16.106;2023-06-10T10:09:06;8;8;5
77538;PMS7003;67783;51.656;16.106;2023-06-10T10:15:16;11;11;8
77538;PMS7003;67783;51.656;16.106;2023-06-10T10:18:21;10;10;7
77538;PMS7003;67783;51.656;16.106;2023-06-10T10:21:31;5;5;5
77538;PMS7003;67783;51.656;16.106;2023-06-10T10:24:41;10;10;8
77538;PMS7003;67783;51.656;16.106;2023-06-10T10:27:52;7;6;5
77538;PMS7003;67783;51.656;16.106;2023-06-10T10:31:02;12;9;8
77538;PMS7003;67783;51.656;16.106;2023-06-10T10:34:18;10;9;6
77538;PMS7003;67783;51.656;16.106;2023-06-10T10:37:26;6;6;5
77538;PMS7003;67783;51.656;16.106;2023-06-10T10:40:29;8;7;6
77538;PMS7003;67783;51.656;16.106;2023-06-10T10:43:33;6;6;5
77538;PMS7003;67783;51.656;16.106;2023-06-10T10:46:43;7;7;6
77538;PMS7003;67783;51.656;16.106;2023-06-10T10:49:45;6;6;5
77538;PMS7003;67783;51.656;16.106;2023-06-10T10:52:55;8;8;7
77538;PMS7003;67783;51.656;16.106;2023-06-10T10:59:19;6;6;5
77538;PMS7003;67783;51.656;16.106;2023-06-10T11:05:40;6;4;3
77538;PMS7003;67783;51.656;16.106;2023-06-10T11:08:49;5;5;5
77538;PMS7003;67783;51.656;16.106;2023-06-10T11:11:51;6;5;5
77538;PMS7003;67783;51.656;16.106;2023-06-10T11:15:02;7;5;4
77538;PMS7003;67783;51.656;16.106;2023-06-10T11:18:08;8;7;6
77538;PMS7003;67783;51.656;16.106;2023-06-10T11:21:13;6;5;5
77538;PMS7003;67783;51.656;16.106;2023-06-10T11:24:31;4;4;3
77538;PMS7003;67783;51.656;16.106;2023-06-10T11:30:41;6;6;4
77538;PMS7003;67783;51.656;16.106;2023-06-10T11:33:43;7;7;6
77538;PMS7003;67783;51.656;16.106;2023-06-10T11:36:45;6;5;5
77538;PMS7003;67783;51.656;16.106;2023-06-10T11:39:53;6;6;4
77538;PMS7003;67783;51.656;16.106;2023-06-10T11:42:55;7;6;5
77538;PMS7003;67783;51.656;16.106;2023-06-10T11:45:59;5;5;4
77538;PMS7003;67783;51.656;16.106;2023-06-10T11:49:02;6;4;4
77538;PMS7003;67783;51.656;16.106;2023-06-10T11:52:06;4;4;4
77538;PMS7003;67783;51.656;16.106;2023-06-10T11:55:11;3;3;2
77538;PMS7003;67783;51.656;16.106;2023-06-10T12:01:25;11;9;7
77538;PMS7003;67783;51.656;16.106;2023-06-10T12:04:37;6;6;5
77538;PMS7003;67783;51.656;16.106;2023-06-10T12:07:39;7;7;6
77538;PMS7003;67783;51.656;16.106;2023-06-10T12:10:43;5;5;4
77538;PMS7003;67783;51.656;16.106;2023-06-10T12:13:46;6;6;5
77538;PMS7003;67783;51.656;16.106;2023-06-10T12:16:51;7;7;6
77538;PMS7003;67783;51.656;16.106;2023-06-10T12:19:58;6;6;5
77538;PMS7003;67783;51.656;16.106;2023-06-10T12:23:07;7;6;5
77538;PMS7003;67783;51.656;16.106;2023-06-10T12:26:13;5;5;4
77538;PMS7003;67783;51.656;16.106;2023-06-10T12:29:24;5;4;3
77538;PMS7003;67783;51.656;16.106;2023-06-10T12:35:46;9;6;6
77538;PMS7003;67783;51.656;16.106;2023-06-10T12:38:50;6;6;5
77538;PMS7003;67783;51.656;16.106;2023-06-10T12:41:54;5;5;4
77538;PMS7003;67783;51.656;16.106;2023-06-10T12:44:56;6;6;4
77538;PMS7003;67783;51.656;16.106;2023-06-10T12:51:10;6;6;5
77538;PMS7003;67783;51.656;16.106;2023-06-10T12:54:15;6;6;4
77538;PMS7003;67783;51.656;16.106;2023-06-10T12:57:17;5;5;3
77538;PMS7003;67783;51.656;16.106;2023-06-10T13:00:19;7;7;5
77538;PMS7003;67783;51.656;16.106;2023-06-10T13:03:20;5;5;5
77538;PMS7003;67783;51.656;16.106;2023-06-10T13:06:22;5;5;4
77538;PMS7003;67783;51.656;16.106;2023-06-10T13:09:24;5;5;4
77538;PMS7003;67783;51.656;16.106;2023-06-10T13:12:26;3;3;3
77538;PMS7003;67783;51.656;16.106;2023-06-10T13:15:34;5;5;4
77538;PMS7003;67783;51.656;16.106;2023-06-10T13:18:40;4;4;3
77538;PMS7003;67783;51.656;16.106;2023-06-10T13:21:41;5;5;4
77538;PMS7003;67783;51.656;16.106;2023-06-10T13:24:43;4;4;4
77538;PMS7003;67783;51.656;16.106;2023-06-10T13:27:44;6;3;3
77538;PMS7003;67783;51.656;16.106;2023-06-10T13:30:51;5;4;3
77538;PMS7003;67783;51.656;16.106;2023-06-10T13:33:52;4;4;4
77538;PMS7003;67783;51.656;16.106;2023-06-10T13:36:54;5;5;3
77538;PMS7003;67783;51.656;16.106;2023-06-10T13:39:55;2;2;2
77538;PMS7003;67783;51.656;16.106;2023-06-10T13:42:58;4;4;3
77538;PMS7003;67783;51.656;16.106;2023-06-10T13:46:00;4;4;3
77538;PMS7003;67783;51.656;16.106;2023-06-10T13:49:01;3;2;2
77538;PMS7003;67783;51.656;16.106;2023-06-10T13:52:07;4;4;3
77538;PMS7003;67783;51.656;16.106;2023-06-10T13:55:09;4;4;3
77538;PMS7003;67783;51.656;16.106;2023-06-10T13:58:10;4;4;4
77538;PMS7003;67783;51.656;16.106;2023-06-10T14:01:12;3;3;3
77538;PMS7003;67783;51.656;16.106;2023-06-10T14:04:13;3;3;2
77538;PMS7003;67783;51.656;16.106;2023-06-10T14:07:15;5;5;5
77538;PMS7003;67783;51.656;16.106;2023-06-10T14:10:17;5;5;4
77538;PMS7003;67783;51.656;16.106;2023-06-10T14:13:22;5;5;3
77538;PMS7003;67783;51.656;16.106;2023-06-10T14:16:24;3;3;2
77538;PMS7003;67783;51.656;16.106;2023-06-10T14:19:25;5;4;4
77538;PMS7003;67783;51.656;16.106;2023-06-10T14:22:27;5;5;4
77538;PMS7003;67783;51.656;16.106;2023-06-10T14:25:28;3;3;3
77538;PMS7003;67783;51.656;16.106;2023-06-10T14:28:30;4;4;3
77538;PMS7003;67783;51.656;16.106;2023-06-10T14:31:32;5;4;3
77538;PMS7003;67783;51.656;16.106;2023-06-10T14:34:37;5;5;4
77538;PMS7003;67783;51.656;16.106;2023-06-10T14:37:40;3;3;2
77538;PMS7003;67783;51.656;16.106;2023-06-10T14:42:43;4;4;2
77538;PMS7003;67783;51.656;16.106;2023-06-10T14:45:45;5;5;4
77538;PMS7003;67783;51.656;16.106;2023-06-10T14:48:46;7;7;4
77538;PMS7003;67783;51.656;16.106;2023-06-10T14:51:48;5;5;3
77538;PMS7003;67783;51.656;16.106;2023-06-10T14:54:50;4;4;4
77538;PMS7003;67783;51.656;16.106;2023-06-10T14:57:52;5;5;4
77538;PMS7003;67783;51.656;16.106;2023-06-10T15:00:57;4;4;4
77538;PMS7003;67783;51.656;16.106;2023-06-10T15:04:00;8;6;4
77538;PMS7003;67783;51.656;16.106;2023-06-10T15:07:01;4;4;4
77538;PMS7003;67783;51.656;16.106;2023-06-10T15:10:03;6;6;4
77538;PMS7003;67783;51.656;16.106;2023-06-10T15:13:05;4;4;3
77538;PMS7003;67783;51.656;16.106;2023-06-10T15:16:07;5;5;4
77538;PMS7003;67783;51.656;16.106;2023-06-10T15:19:08;4;4;3
77538;PMS7003;67783;51.656;16.106;2023-06-10T15:22:13;5;5;4
77538;PMS7003;67783;51.656;16.106;2023-06-10T15:25:15;5;5;4
77538;PMS7003;67783;51.656;16.106;2023-06-10T15:28:17;5;5;3
77538;PMS7003;67783;51.656;16.106;2023-06-10T15:31:19;7;5;4
77538;PMS7003;67783;51.656;16.106;2023-06-10T15:34:20;6;6;4
77538;PMS7003;67783;51.656;16.106;2023-06-10T15:37:22;6;5;4
77538;PMS7003;67783;51.656;16.106;2023-06-10T15:40:25;6;6;5
77538;PMS7003;67783;51.656;16.106;2023-06-10T15:43:29;6;6;4
77538;PMS7003;67783;51.656;16.106;2023-06-10T15:46:31;6;4;3
77538;PMS7003;67783;51.656;16.106;2023-06-10T15:49:35;3;3;3
77538;PMS7003;67783;51.656;16.106;2023-06-10T15:52:37;6;5;3
77538;PMS7003;67783;51.656;16.106;2023-06-10T15:55:39;3;3;3
77538;PMS7003;67783;51.656;16.106;2023-06-10T15:58:50;4;4;3
77538;PMS7003;67783;51.656;16.106;2023-06-10T16:01:51;4;4;3
77538;PMS7003;67783;51.656;16.106;2023-06-10T16:04:53;4;4;3
77538;PMS7003;67783;51.656;16.106;2023-06-10T16:07:55;5;5;4
77538;PMS7003;67783;51.656;16.106;2023-06-10T16:10:57;5;4;3
77538;PMS7003;67783;51.656;16.106;2023-06-10T16:13:58;4;4;4
77538;PMS7003;67783;51.656;16.106;2023-06-10T16:17:00;9;4;3
77538;PMS7003;67783;51.656;16.106;2023-06-10T16:20:05;4;3;3
77538;PMS7003;67783;51.656;16.106;2023-06-10T16:23:07;3;2;2
77538;PMS7003;67783;51.656;16.106;2023-06-10T16:26:09;2;2;2
77538;PMS7003;67783;51.656;16.106;2023-06-10T16:29:11;6;5;3
77538;PMS7003;67783;51.656;16.106;2023-06-10T16:32:13;3;3;2
77538;PMS7003;67783;51.656;16.106;2023-06-10T16:35:25;4;4;2
77538;PMS7003;67783;51.656;16.106;2023-06-10T16:38:27;3;3;2
77538;PMS7003;67783;51.656;16.106;2023-06-10T16:41:28;2;2;2
77538;PMS7003;67783;51.656;16.106;2023-06-10T16:44:30;3;2;1
77538;PMS7003;67783;51.656;16.106;2023-06-10T16:47:32;3;3;3
77538;PMS7003;67783;51.656;16.106;2023-06-10T16:50:33;2;2;2
77538;PMS7003;67783;51.656;16.106;2023-06-10T16:53:35;3;3;2
77538;PMS7003;67783;51.656;16.106;2023-06-10T16:56:40;2;2;2
77538;PMS7003;67783;51.656;16.106;2023-06-10T16:59:42;3;3;2
77538;PMS7003;67783;51.656;16.106;2023-06-10T17:02:43;5;3;2
77538;PMS7003;67783;51.656;16.106;2023-06-10T17:05:45;3;3;2
77538;PMS7003;67783;51.656;16.106;2023-06-10T17:08:47;4;4;3
77538;PMS7003;67783;51.656;16.106;2023-06-10T17:11:49;3;3;2
77538;PMS7003;67783;51.656;16.106;2023-06-10T17:14:50;1;1;1
77538;PMS7003;67783;51.656;16.106;2023-06-10T17:17:55;3;3;2
77538;PMS7003;67783;51.656;16.106;2023-06-10T17:20:57;4;3;2
77538;PMS7003;67783;51.656;16.106;2023-06-10T17:23:58;2;2;2
77538;PMS7003;67783;51.656;16.106;2023-06-10T17:27:00;5;5;4
77538;PMS7003;67783;51.656;16.106;2023-06-10T17:30:02;2;2;2
77538;PMS7003;67783;51.656;16.106;2023-06-10T17:33:04;3;3;2
77538;PMS7003;67783;51.656;16.106;2023-06-10T17:36:06;2;2;2
77538;PMS7003;67783;51.656;16.106;2023-06-10T17:39:11;3;2;1
77538;PMS7003;67783;51.656;16.106;2023-06-10T17:42:13;2;2;2
77538;PMS7003;67783;51.656;16.106;2023-06-10T17:45:15;2;2;1
77538;PMS7003;67783;51.656;16.106;2023-06-10T17:48:17;2;2;2
77538;PMS7003;67783;51.656;16.106;2023-06-10T17:51:19;2;2;1
77538;PMS7003;67783;51.656;16.106;2023-06-10T17:54:31;3;3;2
77538;PMS7003;67783;51.656;16.106;2023-06-10T17:57:33;3;3;2
77538;PMS7003;67783;51.656;16.106;2023-06-10T18:00:34;2;2;1
77538;PMS7003;67783;51.656;16.106;2023-06-10T18:03:36;2;2;2
77538;PMS7003;67783;51.656;16.106;2023-06-10T18:06:38;2;2;2
77538;PMS7003;67783;51.656;16.106;2023-06-10T18:09:40;1;1;1
77538;PMS7003;67783;51.656;16.106;2023-06-10T18:12:41;1;1;1
77538;PMS7003;67783;51.656;16.106;2023-06-10T18:15:46;4;2;1
77538;PMS7003;67783;51.656;16.106;2023-06-10T18:18:48;2;2;1
77538;PMS7003;67783;51.656;16.106;2023-06-10T18:21:49;2;2;1
77538;PMS7003;67783;51.656;16.106;2023-06-10T18:24:51;2;2;1
77538;PMS7003;67783;51.656;16.106;2023-06-10T18:27:52;1;1;1
77538;PMS7003;67783;51.656;16.106;2023-06-10T18:30:54;1;1;1
77538;PMS7003;67783;51.656;16.106;2023-06-10T18:33:56;2;1;1
77538;PMS7003;67783;51.656;16.106;2023-06-10T18:37:02;1;1;1
77538;PMS7003;67783;51.656;16.106;2023-06-10T18:40:05;1;1;1
77538;PMS7003;67783;51.656;16.106;2023-06-10T18:43:07;4;1;0
77538;PMS7003;67783;51.656;16.106;2023-06-10T18:46:09;4;3;2
77538;PMS7003;67783;51.656;16.106;2023-06-10T18:49:11;2;1;0
77538;PMS7003;67783;51.656;16.106;2023-06-10T18:52:22;1;1;1
77538;PMS7003;67783;51.656;16.106;2023-06-10T18:55:23;1;1;1
77538;PMS7003;67783;51.656;16.106;2023-06-10T18:58:25;1;1;1
77538;PMS7003;67783;51.656;16.106;2023-06-10T19:01:27;1;1;1
77538;PMS7003;67783;51.656;16.106;2023-06-10T19:04:29;3;2;1
77538;PMS7003;67783;51.656;16.106;2023-06-10T19:07:42;1;1;1
77538;PMS7003;67783;51.656;16.106;2023-06-10T19:10:44;1;1;0
77538;PMS7003;67783;51.656;16.106;2023-06-10T19:13:45;4;1;0
77538;PMS7003;67783;51.656;16.106;2023-06-10T19:16:47;3;1;1
77538;PMS7003;67783;51.656;16.106;2023-06-10T19:19:48;1;1;1
77538;PMS7003;67783;51.656;16.106;2023-06-10T19:22:50;1;1;1
77538;PMS7003;67783;51.656;16.106;2023-06-10T19:25:52;4;1;0
77538;PMS7003;67783;51.656;16.106;2023-06-10T19:28:57;4;1;1
77538;PMS7003;67783;51.656;16.106;2023-06-10T19:31:58;2;2;1
77538;PMS7003;67783;51.656;16.106;2023-06-10T19:35:00;1;1;1
77538;PMS7003;67783;51.656;16.106;2023-06-10T19:38:04;1;1;0
77538;PMS7003;67783;51.656;16.106;2023-06-10T19:41:06;1;1;0
77538;PMS7003;67783;51.656;16.106;2023-06-10T19:44:17;1;1;1
77538;PMS7003;67783;51.656;16.106;2023-06-10T19:47:19;2;1;1
77538;PMS7003;67783;51.656;16.106;2023-06-10T19:50:21;3;3;1
77538;PMS7003;67783;51.656;16.106;2023-06-10T19:53:23;2;2;1
77538;PMS7003;67783;51.656;16.106;2023-06-10T19:56:24;1;1;1
77538;PMS7003;67783;51.656;16.106;2023-06-10T19:59:26;2;2;1
77538;PMS7003;67783;51.656;16.106;2023-06-10T20:02:32;0;0;0
77538;PMS7003;67783;51.656;16.106;2023-06-10T20:05:37;1;1;1
77538;PMS7003;67783;51.656;16.106;2023-06-10T20:08:39;1;1;1
77538;PMS7003;67783;51.656;16.106;2023-06-10T20:11:41;1;1;1
77538;PMS7003;67783;51.656;16.106;2023-06-10T20:14:43;1;1;1
77538;PMS7003;67783;51.656;16.106;2023-06-10T20:17:46;1;1;1
77538;PMS7003;67783;51.656;16.106;2023-06-10T20:20:57;3;3;2
77538;PMS7003;67783;51.656;16.106;2023-06-10T20:23:59;3;3;2
77538;PMS7003;67783;51.656;16.106;2023-06-10T20:27:00;2;2;1
77538;PMS7003;67783;51.656;16.106;2023-06-10T20:30:02;2;1;1
77538;PMS7003;67783;51.656;16.106;2023-06-10T20:33:05;1;1;1
77538;PMS7003;67783;51.656;16.106;2023-06-10T20:36:18;1;1;1
77538;PMS7003;67783;51.656;16.106;2023-06-10T20:39:20;3;1;1
77538;PMS7003;67783;51.656;16.106;2023-06-10T20:42:22;1;1;1